Pittsburgh, Pennsylvania
Current Conditions -  °F | °C
As of 10:18 AM on Friday 19 Dec 2014 (Local Time) from KAGC Reporting Station
Haze Haze  
Wind Chill: 20°   Ceiling: 1900
Heat Index: 28°   Visibility: 3mi
Dew Point: 23°   Wind: 8mph
Humidity: 81%   Direction: 260°W
Pressure: 30.19"   Gusts: NA
Location:  40.44°N, 80°W
Report Text: KAGC 191518Z 26007KT 3SM BR SCT009 OVC019 M02/M05 A3019 RMK AO2 SNB1456E05 P0000 T10221050
Loading
Personal Weather Stations






























Interactive Weather Map New forecast layout! Learn more

10-Day Weather Forecast

Advertisements
Track Severe Weather on mobile